sensor_id;sensor_type;location;lat;lon;timestamp;P1;durP1;ratioP1;P2;durP2;ratioP2
803;SDS011;25687;49.976;8.240;2023-09-08T00:01:17;7.63;;;6.77;;
803;SDS011;25687;49.976;8.240;2023-09-08T00:03:42;9.87;;;7.57;;
803;SDS011;25687;49.976;8.240;2023-09-08T00:06:07;14.23;;;7.40;;
803;SDS011;25687;49.976;8.240;2023-09-08T00:08:33;9.73;;;7.53;;
803;SDS011;25687;49.976;8.240;2023-09-08T00:10:58;9.13;;;7.27;;
803;SDS011;25687;49.976;8.240;2023-09-08T00:13:23;10.53;;;6.80;;
803;SDS011;25687;49.976;8.240;2023-09-08T00:15:48;10.90;;;7.27;;
803;SDS011;25687;49.976;8.240;2023-09-08T00:18:14;9.93;;;7.23;;
803;SDS011;25687;49.976;8.240;2023-09-08T00:20:39;11.97;;;7.77;;
803;SDS011;25687;49.976;8.240;2023-09-08T00:23:06;11.80;;;7.80;;
803;SDS011;25687;49.976;8.240;2023-09-08T00:25:32;12.70;;;7.70;;
803;SDS011;25687;49.976;8.240;2023-09-08T00:27:57;13.40;;;7.20;;
803;SDS011;25687;49.976;8.240;2023-09-08T00:30:22;9.80;;;7.70;;
803;SDS011;25687;49.976;8.240;2023-09-08T00:32:47;9.20;;;7.57;;
803;SDS011;25687;49.976;8.240;2023-09-08T00:35:13;12.97;;;7.70;;
803;SDS011;25687;49.976;8.240;2023-09-08T00:37:39;12.37;;;7.70;;
803;SDS011;25687;49.976;8.240;2023-09-08T00:40:05;11.10;;;7.27;;
803;SDS011;25687;49.976;8.240;2023-09-08T00:42:32;10.53;;;7.63;;
803;SDS011;25687;49.976;8.240;2023-09-08T00:44:57;12.30;;;7.40;;
803;SDS011;25687;49.976;8.240;2023-09-08T00:47:22;13.23;;;8.57;;
803;SDS011;25687;49.976;8.240;2023-09-08T00:49:48;12.17;;;7.60;;
803;SDS011;25687;49.976;8.240;2023-09-08T00:52:16;11.47;;;7.40;;
803;SDS011;25687;49.976;8.240;2023-09-08T00:54:41;12.97;;;7.87;;
803;SDS011;25687;49.976;8.240;2023-09-08T00:57:07;11.97;;;7.67;;
803;SDS011;25687;49.976;8.240;2023-09-08T00:59:34;13.83;;;8.37;;
803;SDS011;25687;49.976;8.240;2023-09-08T01:02:01;13.73;;;7.67;;
803;SDS011;25687;49.976;8.240;2023-09-08T01:04:27;12.30;;;7.93;;
803;SDS011;25687;49.976;8.240;2023-09-08T01:06:52;13.80;;;7.90;;
803;SDS011;25687;49.976;8.240;2023-09-08T01:09:19;12.03;;;7.70;;
803;SDS011;25687;49.976;8.240;2023-09-08T01:11:44;10.33;;;7.47;;
803;SDS011;25687;49.976;8.240;2023-09-08T01:14:13;11.33;;;7.47;;
803;SDS011;25687;49.976;8.240;2023-09-08T01:16:38;13.67;;;8.47;;
803;SDS011;25687;49.976;8.240;2023-09-08T01:19:05;12.90;;;7.57;;
803;SDS011;25687;49.976;8.240;2023-09-08T01:26:47;11.80;;;7.43;;
803;SDS011;25687;49.976;8.240;2023-09-08T01:29:13;9.80;;;7.57;;
803;SDS011;25687;49.976;8.240;2023-09-08T01:31:41;15.57;;;8.03;;
803;SDS011;25687;49.976;8.240;2023-09-08T01:34:07;10.17;;;7.23;;
803;SDS011;25687;49.976;8.240;2023-09-08T01:36:36;13.13;;;7.93;;
803;SDS011;25687;49.976;8.240;2023-09-08T01:39:02;14.63;;;8.03;;
803;SDS011;25687;49.976;8.240;2023-09-08T01:41:28;10.70;;;7.77;;
803;SDS011;25687;49.976;8.240;2023-09-08T01:43:53;16.13;;;8.23;;
803;SDS011;25687;49.976;8.240;2023-09-08T01:46:19;14.40;;;7.90;;
803;SDS011;25687;49.976;8.240;2023-09-08T01:48:45;13.73;;;8.33;;
803;SDS011;25687;49.976;8.240;2023-09-08T01:51:10;10.50;;;7.53;;
803;SDS011;25687;49.976;8.240;2023-09-08T01:53:35;10.73;;;7.70;;
803;SDS011;25687;49.976;8.240;2023-09-08T01:56:00;9.27;;;7.30;;
803;SDS011;25687;49.976;8.240;2023-09-08T01:58:26;13.40;;;7.77;;
803;SDS011;25687;49.976;8.240;2023-09-08T02:00:51;14.87;;;8.37;;
803;SDS011;25687;49.976;8.240;2023-09-08T02:03:16;13.73;;;7.60;;
803;SDS011;25687;49.976;8.240;2023-09-08T02:05:42;10.73;;;7.87;;
803;SDS011;25687;49.976;8.240;2023-09-08T02:08:07;12.03;;;8.37;;
803;SDS011;25687;49.976;8.240;2023-09-08T02:10:32;11.03;;;7.63;;
803;SDS011;25687;49.976;8.240;2023-09-08T02:12:58;11.40;;;8.00;;
803;SDS011;25687;49.976;8.240;2023-09-08T02:15:23;13.27;;;7.53;;
803;SDS011;25687;49.976;8.240;2023-09-08T02:17:52;12.60;;;7.93;;
803;SDS011;25687;49.976;8.240;2023-09-08T02:20:18;11.47;;;8.00;;
803;SDS011;25687;49.976;8.240;2023-09-08T02:22:44;10.63;;;7.67;;
803;SDS011;25687;49.976;8.240;2023-09-08T02:25:09;11.70;;;7.47;;
803;SDS011;25687;49.976;8.240;2023-09-08T02:27:34;10.27;;;7.23;;
803;SDS011;25687;49.976;8.240;2023-09-08T02:29:59;10.10;;;7.23;;
803;SDS011;25687;49.976;8.240;2023-09-08T02:32:25;10.10;;;7.23;;
803;SDS011;25687;49.976;8.240;2023-09-08T02:34:50;11.63;;;7.63;;
803;SDS011;25687;49.976;8.240;2023-09-08T02:37:15;9.77;;;7.07;;
803;SDS011;25687;49.976;8.240;2023-09-08T02:39:43;11.00;;;7.63;;
803;SDS011;25687;49.976;8.240;2023-09-08T02:42:08;12.97;;;6.80;;
803;SDS011;25687;49.976;8.240;2023-09-08T02:44:33;12.47;;;7.33;;
803;SDS011;25687;49.976;8.240;2023-09-08T02:46:58;9.53;;;6.73;;
803;SDS011;25687;49.976;8.240;2023-09-08T02:49:24;9.07;;;7.27;;
803;SDS011;25687;49.976;8.240;2023-09-08T02:51:49;11.17;;;7.40;;
803;SDS011;25687;49.976;8.240;2023-09-08T02:54:14;11.00;;;7.07;;
803;SDS011;25687;49.976;8.240;2023-09-08T02:56:39;9.20;;;7.50;;
803;SDS011;25687;49.976;8.240;2023-09-08T02:59:05;9.87;;;7.60;;
803;SDS011;25687;49.976;8.240;2023-09-08T03:01:30;9.33;;;7.13;;
803;SDS011;25687;49.976;8.240;2023-09-08T03:03:55;11.53;;;7.67;;
803;SDS011;25687;49.976;8.240;2023-09-08T03:06:20;10.27;;;7.13;;
803;SDS011;25687;49.976;8.240;2023-09-08T03:08:46;9.53;;;7.40;;
803;SDS011;25687;49.976;8.240;2023-09-08T03:11:12;7.47;;;6.63;;
803;SDS011;25687;49.976;8.240;2023-09-08T03:13:37;8.83;;;7.50;;
803;SDS011;25687;49.976;8.240;2023-09-08T03:16:04;8.93;;;7.20;;
803;SDS011;25687;49.976;8.240;2023-09-08T03:18:30;11.57;;;7.43;;
803;SDS011;25687;49.976;8.240;2023-09-08T03:20:57;7.87;;;7.00;;
803;SDS011;25687;49.976;8.240;2023-09-08T03:23:22;11.83;;;7.67;;
803;SDS011;25687;49.976;8.240;2023-09-08T03:25:48;8.20;;;7.00;;
803;SDS011;25687;49.976;8.240;2023-09-08T03:28:14;7.33;;;6.23;;
803;SDS011;25687;49.976;8.240;2023-09-08T03:30:39;10.13;;;7.07;;
803;SDS011;25687;49.976;8.240;2023-09-08T03:33:05;10.13;;;7.20;;
803;SDS011;25687;49.976;8.240;2023-09-08T03:35:30;7.90;;;6.90;;
803;SDS011;25687;49.976;8.240;2023-09-08T03:37:55;8.17;;;7.37;;
803;SDS011;25687;49.976;8.240;2023-09-08T03:40:20;8.27;;;6.93;;
803;SDS011;25687;49.976;8.240;2023-09-08T03:42:46;9.20;;;7.20;;
803;SDS011;25687;49.976;8.240;2023-09-08T03:45:11;10.67;;;7.90;;
803;SDS011;25687;49.976;8.240;2023-09-08T03:47:36;9.37;;;7.20;;
803;SDS011;25687;49.976;8.240;2023-09-08T03:50:01;8.83;;;6.90;;
803;SDS011;25687;49.976;8.240;2023-09-08T03:52:27;9.03;;;7.00;;
803;SDS011;25687;49.976;8.240;2023-09-08T03:54:52;8.73;;;7.93;;
803;SDS011;25687;49.976;8.240;2023-09-08T03:57:17;8.40;;;7.30;;
803;SDS011;25687;49.976;8.240;2023-09-08T03:59:43;10.43;;;7.97;;
803;SDS011;25687;49.976;8.240;2023-09-08T04:02:08;9.10;;;8.20;;
803;SDS011;25687;49.976;8.240;2023-09-08T04:04:33;9.27;;;8.37;;
803;SDS011;25687;49.976;8.240;2023-09-08T04:06:58;9.90;;;8.50;;
803;SDS011;25687;49.976;8.240;2023-09-08T04:09:24;8.43;;;7.63;;
803;SDS011;25687;49.976;8.240;2023-09-08T04:11:49;8.63;;;7.77;;
803;SDS011;25687;49.976;8.240;2023-09-08T04:14:14;9.60;;;8.20;;
803;SDS011;25687;49.976;8.240;2023-09-08T04:16:39;8.73;;;7.83;;
803;SDS011;25687;49.976;8.240;2023-09-08T04:19:05;7.87;;;7.17;;
803;SDS011;25687;49.976;8.240;2023-09-08T04:21:30;9.57;;;8.67;;
803;SDS011;25687;49.976;8.240;2023-09-08T04:23:55;9.10;;;7.87;;
803;SDS011;25687;49.976;8.240;2023-09-08T04:26:21;13.00;;;8.27;;
803;SDS011;25687;49.976;8.240;2023-09-08T04:28:47;10.53;;;8.07;;
803;SDS011;25687;49.976;8.240;2023-09-08T04:31:12;9.70;;;8.47;;
803;SDS011;25687;49.976;8.240;2023-09-08T04:33:38;8.53;;;7.73;;
803;SDS011;25687;49.976;8.240;2023-09-08T04:36:03;10.30;;;8.43;;
803;SDS011;25687;49.976;8.240;2023-09-08T04:38:29;9.93;;;7.90;;
803;SDS011;25687;49.976;8.240;2023-09-08T04:40:54;9.23;;;8.20;;
803;SDS011;25687;49.976;8.240;2023-09-08T04:43:19;15.93;;;8.90;;
803;SDS011;25687;49.976;8.240;2023-09-08T04:45:44;9.17;;;8.27;;
803;SDS011;25687;49.976;8.240;2023-09-08T04:48:10;9.17;;;8.30;;
803;SDS011;25687;49.976;8.240;2023-09-08T04:50:35;9.93;;;8.10;;
803;SDS011;25687;49.976;8.240;2023-09-08T04:53:00;9.80;;;7.97;;
803;SDS011;25687;49.976;8.240;2023-09-08T04:55:25;9.40;;;7.90;;
803;SDS011;25687;49.976;8.240;2023-09-08T04:57:51;11.23;;;8.50;;
803;SDS011;25687;49.976;8.240;2023-09-08T05:00:16;14.87;;;9.03;;
803;SDS011;25687;49.976;8.240;2023-09-08T05:02:42;9.70;;;8.43;;
803;SDS011;25687;49.976;8.240;2023-09-08T05:05:08;10.00;;;8.77;;
803;SDS011;25687;49.976;8.240;2023-09-08T05:07:33;11.03;;;8.77;;
803;SDS011;25687;49.976;8.240;2023-09-08T05:09:58;12.93;;;9.10;;
803;SDS011;25687;49.976;8.240;2023-09-08T05:12:23;11.10;;;9.00;;
803;SDS011;25687;49.976;8.240;2023-09-08T05:14:49;10.10;;;8.93;;
803;SDS011;25687;49.976;8.240;2023-09-08T05:17:14;12.00;;;8.87;;
803;SDS011;25687;49.976;8.240;2023-09-08T05:19:39;8.70;;;7.73;;
803;SDS011;25687;49.976;8.240;2023-09-08T05:22:05;9.83;;;8.83;;
803;SDS011;25687;49.976;8.240;2023-09-08T05:24:32;10.80;;;9.17;;
803;SDS011;25687;49.976;8.240;2023-09-08T05:26:57;9.87;;;8.77;;
803;SDS011;25687;49.976;8.240;2023-09-08T05:29:23;9.73;;;8.83;;
803;SDS011;25687;49.976;8.240;2023-09-08T05:31:48;9.97;;;8.93;;
803;SDS011;25687;49.976;8.240;2023-09-08T05:34:13;9.00;;;8.03;;
803;SDS011;25687;49.976;8.240;2023-09-08T05:36:39;11.67;;;9.43;;
803;SDS011;25687;49.976;8.240;2023-09-08T05:39:05;10.33;;;8.30;;
803;SDS011;25687;49.976;8.240;2023-09-08T05:41:30;8.63;;;7.80;;
803;SDS011;25687;49.976;8.240;2023-09-08T05:43:57;9.63;;;7.90;;
803;SDS011;25687;49.976;8.240;2023-09-08T05:46:22;10.20;;;8.83;;
803;SDS011;25687;49.976;8.240;2023-09-08T05:48:48;10.13;;;8.37;;
803;SDS011;25687;49.976;8.240;2023-09-08T05:51:14;12.23;;;8.97;;
803;SDS011;25687;49.976;8.240;2023-09-08T05:53:40;9.17;;;8.07;;
803;SDS011;25687;49.976;8.240;2023-09-08T05:56:05;9.73;;;7.73;;
803;SDS011;25687;49.976;8.240;2023-09-08T05:58:31;15.17;;;8.77;;
803;SDS011;25687;49.976;8.240;2023-09-08T06:00:57;12.83;;;7.73;;
803;SDS011;25687;49.976;8.240;2023-09-08T06:03:22;9.97;;;7.30;;
803;SDS011;25687;49.976;8.240;2023-09-08T06:05:47;9.33;;;8.17;;
803;SDS011;25687;49.976;8.240;2023-09-08T06:08:12;11.67;;;7.73;;
803;SDS011;25687;49.976;8.240;2023-09-08T06:10:38;12.87;;;8.90;;
803;SDS011;25687;49.976;8.240;2023-09-08T06:13:03;10.67;;;8.10;;
803;SDS011;25687;49.976;8.240;2023-09-08T06:15:29;12.43;;;8.70;;
803;SDS011;25687;49.976;8.240;2023-09-08T06:17:54;10.17;;;8.70;;
803;SDS011;25687;49.976;8.240;2023-09-08T06:20:20;9.97;;;8.53;;
803;SDS011;25687;49.976;8.240;2023-09-08T06:22:46;8.10;;;7.30;;
803;SDS011;25687;49.976;8.240;2023-09-08T06:25:11;13.13;;;8.67;;
803;SDS011;25687;49.976;8.240;2023-09-08T06:27:36;14.10;;;8.33;;
803;SDS011;25687;49.976;8.240;2023-09-08T06:30:02;8.93;;;7.97;;
803;SDS011;25687;49.976;8.240;2023-09-08T06:32:27;13.70;;;8.33;;
803;SDS011;25687;49.976;8.240;2023-09-08T06:34:53;16.57;;;8.63;;
803;SDS011;25687;49.976;8.240;2023-09-08T06:37:18;11.80;;;9.23;;
803;SDS011;25687;49.976;8.240;2023-09-08T06:39:43;11.40;;;8.33;;
803;SDS011;25687;49.976;8.240;2023-09-08T06:42:08;10.47;;;7.90;;
803;SDS011;25687;49.976;8.240;2023-09-08T06:44:34;9.40;;;7.20;;
803;SDS011;25687;49.976;8.240;2023-09-08T06:46:59;11.07;;;7.10;;
803;SDS011;25687;49.976;8.240;2023-09-08T06:49:24;9.40;;;6.80;;
803;SDS011;25687;49.976;8.240;2023-09-08T06:51:49;12.20;;;6.60;;
803;SDS011;25687;49.976;8.240;2023-09-08T06:54:15;6.47;;;5.07;;
803;SDS011;25687;49.976;8.240;2023-09-08T06:56:40;9.02;;;5.30;;
803;SDS011;25687;49.976;8.240;2023-09-08T06:59:05;10.48;;;5.15;;
803;SDS011;25687;49.976;8.240;2023-09-08T07:01:30;12.73;;;4.53;;
803;SDS011;25687;49.976;8.240;2023-09-08T07:03:56;9.18;;;4.90;;
803;SDS011;25687;49.976;8.240;2023-09-08T07:06:21;5.88;;;4.18;;
803;SDS011;25687;49.976;8.240;2023-09-08T07:08:47;6.00;;;4.13;;
803;SDS011;25687;49.976;8.240;2023-09-08T07:11:15;5.13;;;4.63;;
803;SDS011;25687;49.976;8.240;2023-09-08T07:13:40;6.05;;;4.53;;
803;SDS011;25687;49.976;8.240;2023-09-08T07:16:05;4.90;;;4.18;;
803;SDS011;25687;49.976;8.240;2023-09-08T07:18:31;7.90;;;4.70;;
803;SDS011;25687;49.976;8.240;2023-09-08T07:21:00;6.95;;;4.68;;
803;SDS011;25687;49.976;8.240;2023-09-08T07:23:25;5.60;;;4.80;;
803;SDS011;25687;49.976;8.240;2023-09-08T07:25:51;4.88;;;4.10;;
803;SDS011;25687;49.976;8.240;2023-09-08T07:28:16;7.43;;;4.97;;
803;SDS011;25687;49.976;8.240;2023-09-08T07:30:42;5.55;;;4.28;;
803;SDS011;25687;49.976;8.240;2023-09-08T07:33:07;9.13;;;4.75;;
803;SDS011;25687;49.976;8.240;2023-09-08T07:35:37;5.05;;;4.55;;
803;SDS011;25687;49.976;8.240;2023-09-08T07:38:03;7.68;;;5.00;;
803;SDS011;25687;49.976;8.240;2023-09-08T07:40:29;6.47;;;4.88;;
803;SDS011;25687;49.976;8.240;2023-09-08T07:42:54;5.25;;;4.53;;
803;SDS011;25687;49.976;8.240;2023-09-08T07:45:19;7.00;;;4.80;;
803;SDS011;25687;49.976;8.240;2023-09-08T07:47:44;6.93;;;4.97;;
803;SDS011;25687;49.976;8.240;2023-09-08T07:50:16;7.85;;;4.63;;
803;SDS011;25687;49.976;8.240;2023-09-08T07:52:42;6.97;;;4.82;;
803;SDS011;25687;49.976;8.240;2023-09-08T07:55:07;10.95;;;4.38;;
803;SDS011;25687;49.976;8.240;2023-09-08T07:57:33;6.15;;;4.45;;
803;SDS011;25687;49.976;8.240;2023-09-08T07:59:58;5.28;;;4.82;;
803;SDS011;25687;49.976;8.240;2023-09-08T08:02:23;6.45;;;4.20;;
803;SDS011;25687;49.976;8.240;2023-09-08T08:04:48;8.13;;;4.25;;
803;SDS011;25687;49.976;8.240;2023-09-08T08:07:14;4.25;;;3.85;;
803;SDS011;25687;49.976;8.240;2023-09-08T08:09:39;4.90;;;4.38;;
803;SDS011;25687;49.976;8.240;2023-09-08T08:12:04;5.35;;;4.22;;
803;SDS011;25687;49.976;8.240;2023-09-08T08:14:30;6.90;;;4.07;;
803;SDS011;25687;49.976;8.240;2023-09-08T08:16:55;4.50;;;3.80;;
803;SDS011;25687;49.976;8.240;2023-09-08T08:19:21;9.48;;;3.92;;
803;SDS011;25687;49.976;8.240;2023-09-08T08:21:46;5.57;;;4.30;;
803;SDS011;25687;49.976;8.240;2023-09-08T08:24:11;9.40;;;5.22;;
803;SDS011;25687;49.976;8.240;2023-09-08T08:26:37;6.43;;;4.05;;
803;SDS011;25687;49.976;8.240;2023-09-08T08:29:02;4.85;;;4.25;;
803;SDS011;25687;49.976;8.240;2023-09-08T08:31:28;7.22;;;4.50;;
803;SDS011;25687;49.976;8.240;2023-09-08T08:33:53;8.68;;;4.22;;
803;SDS011;25687;49.976;8.240;2023-09-08T08:36:19;5.38;;;4.20;;
803;SDS011;25687;49.976;8.240;2023-09-08T08:38:44;6.20;;;4.38;;
803;SDS011;25687;49.976;8.240;2023-09-08T08:41:09;6.80;;;4.43;;
803;SDS011;25687;49.976;8.240;2023-09-08T08:43:35;8.18;;;4.72;;
803;SDS011;25687;49.976;8.240;2023-09-08T08:46:02;7.28;;;4.35;;
803;SDS011;25687;49.976;8.240;2023-09-08T08:48:29;5.65;;;4.40;;
803;SDS011;25687;49.976;8.240;2023-09-08T08:50:54;11.20;;;4.80;;
803;SDS011;25687;49.976;8.240;2023-09-08T08:53:22;6.20;;;4.30;;
803;SDS011;25687;49.976;8.240;2023-09-08T08:55:47;7.00;;;4.32;;
803;SDS011;25687;49.976;8.240;2023-09-08T08:58:16;5.55;;;4.20;;
803;SDS011;25687;49.976;8.240;2023-09-08T09:00:45;5.07;;;4.30;;
803;SDS011;25687;49.976;8.240;2023-09-08T09:03:11;5.13;;;4.63;;
803;SDS011;25687;49.976;8.240;2023-09-08T09:05:37;6.97;;;4.65;;
803;SDS011;25687;49.976;8.240;2023-09-08T09:08:02;6.57;;;3.90;;
803;SDS011;25687;49.976;8.240;2023-09-08T09:10:30;7.57;;;4.55;;
803;SDS011;25687;49.976;8.240;2023-09-08T09:12:56;8.32;;;4.40;;
803;SDS011;25687;49.976;8.240;2023-09-08T09:15:31;6.13;;;4.47;;
803;SDS011;25687;49.976;8.240;2023-09-08T09:18:03;9.80;;;4.82;;
803;SDS011;25687;49.976;8.240;2023-09-08T09:20:32;7.75;;;4.70;;
803;SDS011;25687;49.976;8.240;2023-09-08T09:22:58;9.48;;;4.53;;
803;SDS011;25687;49.976;8.240;2023-09-08T09:25:24;11.82;;;4.53;;
803;SDS011;25687;49.976;8.240;2023-09-08T09:27:56;8.70;;;4.50;;
803;SDS011;25687;49.976;8.240;2023-09-08T09:30:23;5.00;;;3.80;;
803;SDS011;25687;49.976;8.240;2023-09-08T09:33:02;5.70;;;4.40;;
803;SDS011;25687;49.976;8.240;2023-09-08T09:35:48;5.03;;;4.10;;
803;SDS011;25687;49.976;8.240;2023-09-08T09:38:18;5.55;;;4.13;;
803;SDS011;25687;49.976;8.240;2023-09-08T09:40:47;4.97;;;4.10;;
803;SDS011;25687;49.976;8.240;2023-09-08T09:43:14;8.25;;;3.97;;
803;SDS011;25687;49.976;8.240;2023-09-08T09:45:41;6.90;;;3.78;;
803;SDS011;25687;49.976;8.240;2023-09-08T09:48:07;5.03;;;3.78;;
803;SDS011;25687;49.976;8.240;2023-09-08T09:50:37;6.28;;;4.28;;
803;SDS011;25687;49.976;8.240;2023-09-08T09:53:08;7.60;;;4.55;;
803;SDS011;25687;49.976;8.240;2023-09-08T09:55:36;5.55;;;4.10;;
803;SDS011;25687;49.976;8.240;2023-09-08T09:58:03;6.70;;;4.28;;
803;SDS011;25687;49.976;8.240;2023-09-08T10:00:29;6.30;;;3.85;;
803;SDS011;25687;49.976;8.240;2023-09-08T10:02:58;4.47;;;4.07;;
803;SDS011;25687;49.976;8.240;2023-09-08T10:05:24;5.30;;;3.85;;
803;SDS011;25687;49.976;8.240;2023-09-08T10:07:50;7.97;;;4.57;;
803;SDS011;25687;49.976;8.240;2023-09-08T10:10:16;4.93;;;4.18;;
803;SDS011;25687;49.976;8.240;2023-09-08T10:12:46;11.43;;;4.40;;
803;SDS011;25687;49.976;8.240;2023-09-08T10:15:18;7.70;;;4.07;;
803;SDS011;25687;49.976;8.240;2023-09-08T10:17:45;13.48;;;4.13;;
803;SDS011;25687;49.976;8.240;2023-09-08T10:20:16;4.97;;;3.95;;
803;SDS011;25687;49.976;8.240;2023-09-08T10:22:42;7.95;;;3.67;;
803;SDS011;25687;49.976;8.240;2023-09-08T10:25:08;9.77;;;4.40;;
803;SDS011;25687;49.976;8.240;2023-09-08T10:27:37;5.05;;;3.83;;
803;SDS011;25687;49.976;8.240;2023-09-08T10:30:03;5.75;;;4.03;;
803;SDS011;25687;49.976;8.240;2023-09-08T10:32:30;8.30;;;3.65;;
803;SDS011;25687;49.976;8.240;2023-09-08T10:34:57;13.55;;;4.18;;
803;SDS011;25687;49.976;8.240;2023-09-08T10:37:25;5.13;;;4.63;;
803;SDS011;25687;49.976;8.240;2023-09-08T10:39:52;7.25;;;4.47;;
803;SDS011;25687;49.976;8.240;2023-09-08T10:42:19;7.82;;;4.35;;
803;SDS011;25687;49.976;8.240;2023-09-08T10:47:14;5.10;;;4.70;;
803;SDS011;25687;49.976;8.240;2023-09-08T10:49:43;5.32;;;4.82;;
803;SDS011;25687;49.976;8.240;2023-09-08T10:52:09;6.18;;;4.80;;
803;SDS011;25687;49.976;8.240;2023-09-08T10:54:47;8.38;;;4.75;;
803;SDS011;25687;49.976;8.240;2023-09-08T10:57:14;8.27;;;5.07;;
803;SDS011;25687;49.976;8.240;2023-09-08T10:59:50;5.00;;;4.50;;
803;SDS011;25687;49.976;8.240;2023-09-08T11:02:35;5.72;;;5.22;;
803;SDS011;25687;49.976;8.240;2023-09-08T11:05:01;9.57;;;5.15;;
803;SDS011;25687;49.976;8.240;2023-09-08T11:07:27;5.35;;;4.85;;
803;SDS011;25687;49.976;8.240;2023-09-08T11:09:52;5.15;;;4.65;;
803;SDS011;25687;49.976;8.240;2023-09-08T11:12:17;5.22;;;4.35;;
803;SDS011;25687;49.976;8.240;2023-09-08T11:14:43;8.07;;;5.07;;
803;SDS011;25687;49.976;8.240;2023-09-08T11:17:08;8.27;;;5.00;;
803;SDS011;25687;49.976;8.240;2023-09-08T11:19:46;7.00;;;4.80;;
803;SDS011;25687;49.976;8.240;2023-09-08T11:22:13;6.90;;;4.97;;
803;SDS011;25687;49.976;8.240;2023-09-08T11:24:41;6.78;;;4.88;;
803;SDS011;25687;49.976;8.240;2023-09-08T11:27:07;9.23;;;4.88;;
803;SDS011;25687;49.976;8.240;2023-09-08T11:29:32;5.38;;;4.88;;
803;SDS011;25687;49.976;8.240;2023-09-08T11:31:57;7.90;;;4.90;;
803;SDS011;25687;49.976;8.240;2023-09-08T11:34:23;8.60;;;4.70;;
803;SDS011;25687;49.976;8.240;2023-09-08T11:36:48;6.47;;;4.80;;
803;SDS011;25687;49.976;8.240;2023-09-08T11:39:14;6.43;;;5.25;;
803;SDS011;25687;49.976;8.240;2023-09-08T11:41:39;7.25;;;4.70;;
803;SDS011;25687;49.976;8.240;2023-09-08T11:44:05;4.78;;;4.38;;
803;SDS011;25687;49.976;8.240;2023-09-08T11:46:30;7.22;;;4.90;;
803;SDS011;25687;49.976;8.240;2023-09-08T11:48:56;6.03;;;5.13;;
803;SDS011;25687;49.976;8.240;2023-09-08T11:51:23;5.85;;;4.63;;
803;SDS011;25687;49.976;8.240;2023-09-08T11:53:49;8.48;;;4.88;;
803;SDS011;25687;49.976;8.240;2023-09-08T11:56:14;5.88;;;4.40;;
803;SDS011;25687;49.976;8.240;2023-09-08T11:58:40;6.38;;;4.30;;
803;SDS011;25687;49.976;8.240;2023-09-08T12:01:06;8.05;;;4.60;;
803;SDS011;25687;49.976;8.240;2023-09-08T12:03:32;6.15;;;4.50;;
803;SDS011;25687;49.976;8.240;2023-09-08T12:05:57;5.05;;;4.35;;
803;SDS011;25687;49.976;8.240;2023-09-08T12:08:24;4.60;;;3.80;;
803;SDS011;25687;49.976;8.240;2023-09-08T12:10:53;4.70;;;4.25;;
803;SDS011;25687;49.976;8.240;2023-09-08T12:13:24;7.40;;;4.00;;
803;SDS011;25687;49.976;8.240;2023-09-08T12:15:50;5.10;;;4.22;;
803;SDS011;25687;49.976;8.240;2023-09-08T12:18:15;4.18;;;3.72;;
803;SDS011;25687;49.976;8.240;2023-09-08T12:20:41;5.32;;;4.20;;
803;SDS011;25687;49.976;8.240;2023-09-08T12:23:15;5.65;;;4.80;;
803;SDS011;25687;49.976;8.240;2023-09-08T12:25:45;7.50;;;4.32;;
803;SDS011;25687;49.976;8.240;2023-09-08T12:28:16;4.50;;;4.07;;
803;SDS011;25687;49.976;8.240;2023-09-08T12:30:43;6.90;;;4.28;;
803;SDS011;25687;49.976;8.240;2023-09-08T12:33:08;4.85;;;4.15;;
803;SDS011;25687;49.976;8.240;2023-09-08T12:35:35;6.20;;;3.90;;
803;SDS011;25687;49.976;8.240;2023-09-08T12:38:01;4.82;;;4.40;;
803;SDS011;25687;49.976;8.240;2023-09-08T12:40:32;4.63;;;4.22;;
803;SDS011;25687;49.976;8.240;2023-09-08T12:42:59;5.18;;;4.53;;
803;SDS011;25687;49.976;8.240;2023-09-08T12:45:25;6.43;;;4.38;;
803;SDS011;25687;49.976;8.240;2023-09-08T12:47:51;4.65;;;4.22;;
803;SDS011;25687;49.976;8.240;2023-09-08T12:50:16;5.38;;;4.07;;
803;SDS011;25687;49.976;8.240;2023-09-08T12:52:42;6.68;;;3.92;;
803;SDS011;25687;49.976;8.240;2023-09-08T12:55:08;8.00;;;4.00;;
803;SDS011;25687;49.976;8.240;2023-09-08T12:57:34;5.47;;;4.00;;
803;SDS011;25687;49.976;8.240;2023-09-08T13:00:00;6.32;;;4.13;;
803;SDS011;25687;49.976;8.240;2023-09-08T13:02:26;7.55;;;4.60;;
803;SDS011;25687;49.976;8.240;2023-09-08T13:04:51;4.20;;;3.80;;
803;SDS011;25687;49.976;8.240;2023-09-08T13:07:17;6.95;;;4.57;;
803;SDS011;25687;49.976;8.240;2023-09-08T13:09:43;8.13;;;4.32;;
803;SDS011;25687;49.976;8.240;2023-09-08T13:12:08;4.80;;;4.30;;
803;SDS011;25687;49.976;8.240;2023-09-08T13:14:35;8.57;;;4.35;;
803;SDS011;25687;49.976;8.240;2023-09-08T13:17:00;5.97;;;4.40;;
803;SDS011;25687;49.976;8.240;2023-09-08T13:19:26;5.72;;;4.00;;
803;SDS011;25687;49.976;8.240;2023-09-08T13:21:51;5.00;;;4.20;;
803;SDS011;25687;49.976;8.240;2023-09-08T13:24:16;7.90;;;4.28;;
803;SDS011;25687;49.976;8.240;2023-09-08T13:26:42;4.60;;;3.78;;
803;SDS011;25687;49.976;8.240;2023-09-08T13:29:07;9.43;;;4.15;;
803;SDS011;25687;49.976;8.240;2023-09-08T13:31:32;5.80;;;3.97;;
803;SDS011;25687;49.976;8.240;2023-09-08T13:33:57;5.82;;;4.22;;
803;SDS011;25687;49.976;8.240;2023-09-08T13:36:23;5.72;;;3.60;;
803;SDS011;25687;49.976;8.240;2023-09-08T13:38:48;8.07;;;4.85;;
803;SDS011;25687;49.976;8.240;2023-09-08T13:41:13;4.35;;;3.92;;
803;SDS011;25687;49.976;8.240;2023-09-08T13:43:38;3.80;;;3.50;;
803;SDS011;25687;49.976;8.240;2023-09-08T13:46:04;7.47;;;3.83;;
803;SDS011;25687;49.976;8.240;2023-09-08T13:48:29;5.53;;;4.10;;
803;SDS011;25687;49.976;8.240;2023-09-08T13:50:54;5.85;;;4.30;;
803;SDS011;25687;49.976;8.240;2023-09-08T13:53:20;5.15;;;3.95;;
803;SDS011;25687;49.976;8.240;2023-09-08T13:55:46;4.30;;;3.90;;
803;SDS011;25687;49.976;8.240;2023-09-08T13:58:12;5.40;;;3.83;;
803;SDS011;25687;49.976;8.240;2023-09-08T14:00:38;5.95;;;3.78;;
803;SDS011;25687;49.976;8.240;2023-09-08T14:03:03;6.53;;;3.92;;
803;SDS011;25687;49.976;8.240;2023-09-08T14:05:29;7.15;;;4.22;;
803;SDS011;25687;49.976;8.240;2023-09-08T14:07:54;4.80;;;4.30;;
803;SDS011;25687;49.976;8.240;2023-09-08T14:10:19;6.95;;;3.92;;
803;SDS011;25687;49.976;8.240;2023-09-08T14:12:45;4.78;;;4.05;;
803;SDS011;25687;49.976;8.240;2023-09-08T14:15:10;6.15;;;3.63;;
803;SDS011;25687;49.976;8.240;2023-09-08T14:17:40;5.20;;;4.20;;
803;SDS011;25687;49.976;8.240;2023-09-08T14:20:05;4.53;;;3.78;;
803;SDS011;25687;49.976;8.240;2023-09-08T14:22:31;5.45;;;4.32;;
803;SDS011;25687;49.976;8.240;2023-09-08T14:24:56;5.18;;;4.10;;
803;SDS011;25687;49.976;8.240;2023-09-08T14:27:22;3.92;;;3.60;;
803;SDS011;25687;49.976;8.240;2023-09-08T14:29:47;6.97;;;3.47;;
803;SDS011;25687;49.976;8.240;2023-09-08T14:32:12;5.53;;;4.00;;
803;SDS011;25687;49.976;8.240;2023-09-08T14:34:38;4.90;;;4.03;;
803;SDS011;25687;49.976;8.240;2023-09-08T14:37:03;4.75;;;3.83;;
803;SDS011;25687;49.976;8.240;2023-09-08T14:39:28;3.80;;;3.50;;
803;SDS011;25687;49.976;8.240;2023-09-08T14:41:53;4.20;;;3.88;;
803;SDS011;25687;49.976;8.240;2023-09-08T14:44:20;5.72;;;3.97;;
803;SDS011;25687;49.976;8.240;2023-09-08T14:46:47;5.25;;;3.55;;
803;SDS011;25687;49.976;8.240;2023-09-08T14:49:13;8.30;;;3.88;;
803;SDS011;25687;49.976;8.240;2023-09-08T14:51:40;5.22;;;3.85;;
803;SDS011;25687;49.976;8.240;2023-09-08T14:54:05;6.07;;;4.10;;
803;SDS011;25687;49.976;8.240;2023-09-08T14:56:30;4.43;;;4.00;;
803;SDS011;25687;49.976;8.240;2023-09-08T14:58:56;3.65;;;3.35;;
803;SDS011;25687;49.976;8.240;2023-09-08T15:01:21;6.78;;;4.07;;
803;SDS011;25687;49.976;8.240;2023-09-08T15:03:46;4.28;;;3.78;;
803;SDS011;25687;49.976;8.240;2023-09-08T15:06:12;4.35;;;3.75;;
803;SDS011;25687;49.976;8.240;2023-09-08T15:08:37;5.10;;;3.40;;
803;SDS011;25687;49.976;8.240;2023-09-08T15:11:02;5.38;;;3.97;;
803;SDS011;25687;49.976;8.240;2023-09-08T15:13:28;4.20;;;3.88;;